createdAt,value
2019-02-11T00:04:54.567Z,2.25
2019-02-11T00:09:59.821Z,1.52
2019-02-11T00:15:01.999Z,1.60
2019-02-11T00:20:08.567Z,2.60
2019-02-11T00:25:10.114Z,2.95
2019-02-11T00:30:11.777Z,2.17
2019-02-11T00:35:13.433Z,3.00
2019-02-11T00:40:15.130Z,3.80
2019-02-11T00:45:16.648Z,3.65
2019-02-11T00:50:18.221Z,3.30
2019-02-11T00:55:19.810Z,6.33
2019-02-11T01:00:21.301Z,10.43
2019-02-11T01:05:22.777Z,9.23
2019-02-11T01:10:24.401Z,8.43
2019-02-11T01:15:25.840Z,5.85
2019-02-11T01:20:28.715Z,6.70
2019-02-11T01:25:30.146Z,4.72
2019-02-11T01:30:35.046Z,4.70
2019-02-11T01:35:36.986Z,4.92
2019-02-11T01:40:58.206Z,4.72
2019-02-11T01:46:01.644Z,4.37
2019-02-11T01:51:03.323Z,4.03
2019-02-11T01:56:07.199Z,4.70
2019-02-11T02:01:10.812Z,4.65
2019-02-11T02:06:13.655Z,5.03
2019-02-11T02:11:16.819Z,4.65
2019-02-11T02:16:18.641Z,5.08
2019-02-11T02:21:20.120Z,4.35
2019-02-11T02:26:21.798Z,3.30
2019-02-11T02:31:24.852Z,4.95
2019-02-11T02:36:26.218Z,4.00
2019-02-11T02:41:29.858Z,5.58
2019-02-11T02:46:31.354Z,4.50
2019-02-11T02:51:32.999Z,5.92
2019-02-11T02:56:34.442Z,5.05
2019-02-11T03:01:35.984Z,4.85
2019-02-11T03:06:37.750Z,4.15
2019-02-11T03:11:39.377Z,4.90
2019-02-11T03:16:40.998Z,5.95
2019-02-11T03:21:42.461Z,4.92
2019-02-11T03:26:43.997Z,4.35
2019-02-11T03:31:45.472Z,6.17
2019-02-11T03:36:47.071Z,5.10
2019-02-11T03:41:48.953Z,4.37
2019-02-11T03:46:52.004Z,5.00
2019-02-11T03:51:53.435Z,3.77
2019-02-11T03:56:54.960Z,5.70
2019-02-11T04:01:56.948Z,3.85
2019-02-11T04:06:58.366Z,4.45
2019-02-11T04:12:00.769Z,6.92
2019-02-11T04:17:02.345Z,6.70
2019-02-11T04:22:06.511Z,4.60
2019-02-11T04:27:26.601Z,6.33
2019-02-11T04:32:27.989Z,5.17
2019-02-11T04:37:29.598Z,4.40
2019-02-11T04:42:31.518Z,4.50
2019-02-11T04:47:32.984Z,4.50
2019-02-11T04:52:34.997Z,6.00
2019-02-11T04:57:36.455Z,5.08
2019-02-11T05:02:37.951Z,4.83
2019-02-11T05:07:39.375Z,4.25
2019-02-11T05:12:40.982Z,4.00
2019-02-11T05:17:42.800Z,5.83
2019-02-11T05:22:44.163Z,5.17
2019-02-11T05:27:45.578Z,4.85
2019-02-11T05:32:46.905Z,5.62
2019-02-11T05:37:50.291Z,3.33
2019-02-11T05:42:54.062Z,4.15
2019-02-11T05:47:55.387Z,4.70
2019-02-11T05:52:56.889Z,4.87
2019-02-11T05:57:58.361Z,6.80
2019-02-11T06:02:59.983Z,4.75
2019-02-11T06:08:01.524Z,5.17
2019-02-11T06:13:06.163Z,5.55
2019-02-11T06:18:07.792Z,6.90
2019-02-11T06:23:12.347Z,6.40
2019-02-11T06:28:13.890Z,6.60
2019-02-11T06:33:15.399Z,6.42
2019-02-11T06:38:16.790Z,6.05
2019-02-11T06:43:19.993Z,6.85
2019-02-11T06:48:21.414Z,5.40
2019-02-11T06:53:22.781Z,5.72
2019-02-11T06:58:24.452Z,6.50
2019-02-11T07:03:27.096Z,6.95
2019-02-11T07:08:28.554Z,7.30
2019-02-11T07:13:30.170Z,7.65
2019-02-11T07:18:31.901Z,9.93
2019-02-11T07:23:36.192Z,8.03
2019-02-11T07:28:37.774Z,7.67
2019-02-11T07:33:40.825Z,9.30
2019-02-11T07:38:42.389Z,8.10
2019-02-11T07:43:48.503Z,9.80
2019-02-11T07:48:50.276Z,9.70
2019-02-11T07:53:52.029Z,9.55
2019-02-11T07:58:53.599Z,9.28
2019-02-11T08:03:55.498Z,9.03
2019-02-11T08:08:56.875Z,8.13
2019-02-11T08:13:58.319Z,10.88
2019-02-11T08:19:01.554Z,9.30
2019-02-11T08:24:04.803Z,10.13
2019-02-11T08:29:06.372Z,9.90
2019-02-11T08:34:08.597Z,10.38
2019-02-11T08:39:10.189Z,9.43
2019-02-11T08:44:13.151Z,12.35
2019-02-11T08:49:16.460Z,12.88
2019-02-11T08:54:20.857Z,12.58
2019-02-11T08:59:24.496Z,12.93
2019-02-11T09:04:30.197Z,10.05
2019-02-11T09:09:31.493Z,10.78
2019-02-11T09:14:33.990Z,10.28
2019-02-11T09:19:42.320Z,10.98
2019-02-11T09:24:43.850Z,13.98
2019-02-11T09:29:45.357Z,9.78
2019-02-11T09:34:46.748Z,11.35
2019-02-11T09:39:48.162Z,10.30
2019-02-11T09:44:49.847Z,10.85
2019-02-11T09:50:13.305Z,10.23
2019-02-11T09:55:22.294Z,9.08
2019-02-11T10:00:24.075Z,9.65
2019-02-11T10:05:25.572Z,8.80
2019-02-11T10:10:27.041Z,7.67
2019-02-11T10:15:28.647Z,7.45
2019-02-11T10:20:33.159Z,8.75
2019-02-11T10:25:34.637Z,8.13
2019-02-11T10:30:54.844Z,7.92
2019-02-11T10:35:57.244Z,9.03
2019-02-11T10:40:58.718Z,7.85
2019-02-11T10:46:02.003Z,6.40
2019-02-11T10:51:03.506Z,7.08
2019-02-11T10:56:04.816Z,5.83
2019-02-11T11:01:06.522Z,5.75
2019-02-11T11:06:08.152Z,5.22
2019-02-11T11:11:09.747Z,5.12
2019-02-11T11:16:11.321Z,5.10
2019-02-11T11:21:13.341Z,4.92
2019-02-11T11:26:14.894Z,4.33
2019-02-11T11:31:16.637Z,3.75
2019-02-11T11:36:18.082Z,4.12
2019-02-11T11:41:20.577Z,4.58
2019-02-11T11:46:21.984Z,3.83
2019-02-11T11:51:24.759Z,3.98
2019-02-11T11:56:26.231Z,4.10
2019-02-11T12:01:27.945Z,3.50
2019-02-11T12:06:29.324Z,2.92
2019-02-11T12:11:30.899Z,3.40
2019-02-11T12:16:32.383Z,2.60
2019-02-11T12:21:34.041Z,2.65
2019-02-11T12:26:37.381Z,3.45
2019-02-11T12:31:38.758Z,3.72
2019-02-11T12:36:40.256Z,3.62
2019-02-11T12:41:41.881Z,3.83
2019-02-11T12:46:43.300Z,2.08
2019-02-11T12:51:44.804Z,3.45
2019-02-11T12:56:46.107Z,1.60
2019-02-11T13:01:47.667Z,3.60
2019-02-11T13:06:49.144Z,2.02
2019-02-11T13:11:50.419Z,2.40
2019-02-11T13:16:51.855Z,2.33
2019-02-11T13:21:53.645Z,2.17
2019-02-11T13:26:58.482Z,2.75
2019-02-11T13:31:59.815Z,3.40
2019-02-11T13:37:01.754Z,3.20
2019-02-11T13:42:03.231Z,2.92
2019-02-11T13:47:04.945Z,2.70
2019-02-11T13:52:06.588Z,3.15
2019-02-11T13:57:07.979Z,4.12
2019-02-11T14:02:10.332Z,3.33
2019-02-11T14:07:11.946Z,2.55
2019-02-11T14:12:13.715Z,5.47
2019-02-11T14:17:15.148Z,2.22
2019-02-11T14:22:16.758Z,1.98
2019-02-11T14:27:18.510Z,3.05
2019-02-11T14:32:21.487Z,2.30
2019-02-11T14:37:22.916Z,1.95
2019-02-11T14:42:24.247Z,2.40
2019-02-11T14:47:25.526Z,2.17
2019-02-11T14:52:27.037Z,1.90
2019-02-11T14:57:28.573Z,2.60
2019-02-11T15:02:30.087Z,1.77
2019-02-11T15:07:31.815Z,1.98
2019-02-11T15:12:34.310Z,1.95
2019-02-11T15:17:37.045Z,2.10
2019-02-11T15:22:38.506Z,1.87
2019-02-11T15:27:39.824Z,2.55
2019-02-11T15:32:41.224Z,2.75
2019-02-11T15:37:42.743Z,2.75
2019-02-11T15:42:44.063Z,2.40
2019-02-11T15:47:45.698Z,2.58
2019-02-11T15:52:47.154Z,2.75
2019-02-11T15:57:48.566Z,3.50
2019-02-11T16:02:51.702Z,2.47
2019-02-11T16:07:53.511Z,2.87
2019-02-11T16:12:55.135Z,3.20
2019-02-11T16:17:56.479Z,3.58
2019-02-11T16:22:58.304Z,2.40
2019-02-11T16:28:00.442Z,3.90
2019-02-11T16:33:01.856Z,5.78
2019-02-11T16:38:03.459Z,5.08
2019-02-11T16:43:04.959Z,5.62
2019-02-11T16:48:06.386Z,3.80
2019-02-11T16:53:08.016Z,3.22
2019-02-11T16:58:09.399Z,2.80
2019-02-11T17:03:11.073Z,2.25
2019-02-11T17:08:12.598Z,3.40
2019-02-11T17:13:14.337Z,3.02
2019-02-11T17:18:15.739Z,3.17
2019-02-11T17:23:17.074Z,4.58
2019-02-11T17:28:22.007Z,2.80
2019-02-11T17:33:23.403Z,2.47
2019-02-11T17:38:24.751Z,2.90
2019-02-11T17:43:26.335Z,3.20
2019-02-11T17:48:28.242Z,3.40
2019-02-11T17:53:29.687Z,3.62
2019-02-11T17:58:31.115Z,4.12
2019-02-11T18:03:32.933Z,5.85
2019-02-11T18:08:34.532Z,4.33
2019-02-11T18:13:37.145Z,5.58
2019-02-11T18:18:39.175Z,5.95
2019-02-11T18:23:40.554Z,6.58
2019-02-11T18:28:42.299Z,4.92
2019-02-11T18:33:43.854Z,4.90
2019-02-11T18:38:45.291Z,5.72
2019-02-11T18:43:46.980Z,6.53
2019-02-11T18:48:48.362Z,6.05
2019-02-11T18:53:49.881Z,7.90
2019-02-11T18:58:51.388Z,9.53
2019-02-11T19:03:53.144Z,9.90
2019-02-11T19:08:54.817Z,8.23
2019-02-11T19:13:56.188Z,8.65
2019-02-11T19:18:57.745Z,8.70
2019-02-11T19:24:00.114Z,9.90
2019-02-11T19:29:01.688Z,9.08
2019-02-11T19:34:03.332Z,10.03
2019-02-11T19:39:07.051Z,7.35
2019-02-11T19:44:08.474Z,8.68
2019-02-11T19:49:10.043Z,8.40
2019-02-11T19:54:11.367Z,7.80
2019-02-11T19:59:12.641Z,7.78
2019-02-11T20:04:14.098Z,7.53
2019-02-11T20:09:15.469Z,7.42
2019-02-11T20:14:16.884Z,6.83
2019-02-11T20:19:18.418Z,7.05
2019-02-11T20:24:19.852Z,7.20
2019-02-11T20:29:21.305Z,7.20
2019-02-11T20:34:22.823Z,8.35
2019-02-11T20:39:24.235Z,7.12
2019-02-11T20:44:25.758Z,7.92
2019-02-11T20:49:27.026Z,8.05
2019-02-11T20:54:28.387Z,8.38
2019-02-11T20:59:30.587Z,8.70
2019-02-11T21:04:32.064Z,11.03
2019-02-11T21:09:33.505Z,12.20
2019-02-11T21:14:34.817Z,13.72
2019-02-11T21:19:36.212Z,15.65
2019-02-11T21:24:37.619Z,11.65
2019-02-11T21:29:38.914Z,12.50
2019-02-11T21:34:40.258Z,13.08
2019-02-11T21:39:41.587Z,15.15
2019-02-11T21:44:43.321Z,15.40
2019-02-11T21:49:44.879Z,14.18
2019-02-11T21:54:46.311Z,13.90
2019-02-11T21:59:47.854Z,16.15
2019-02-11T22:04:49.269Z,13.35
2019-02-11T22:09:50.775Z,12.63
2019-02-11T22:14:52.122Z,11.95
2019-02-11T22:19:53.636Z,12.68
2019-02-11T22:24:56.434Z,10.23
2019-02-11T22:29:58.008Z,11.25
2019-02-11T22:34:59.432Z,12.65
2019-02-11T22:40:00.765Z,13.48
2019-02-11T22:45:04.107Z,12.70
2019-02-11T22:50:10.374Z,11.38
2019-02-11T22:55:14.983Z,10.20
2019-02-11T23:00:26.407Z,12.28
2019-02-11T23:05:28.010Z,10.30
2019-02-11T23:10:29.582Z,10.10
2019-02-11T23:15:30.994Z,10.03
2019-02-11T23:20:32.325Z,8.80
2019-02-11T23:25:34.175Z,12.13
2019-02-11T23:30:35.494Z,12.85
2019-02-11T23:35:36.858Z,14.33
2019-02-11T23:40:38.112Z,11.90
2019-02-11T23:45:39.833Z,13.13
2019-02-11T23:50:41.217Z,10.03
2019-02-11T23:55:43.033Z,10.32
